createdAt,value
2022-12-09T00:01:17.825Z,1.44
2022-12-09T00:03:45.418Z,1.43
2022-12-09T00:06:16.673Z,1.43
2022-12-09T00:08:43.798Z,1.46
2022-12-09T00:11:10.798Z,1.50
2022-12-09T00:13:38.446Z,1.49
2022-12-09T00:16:10.845Z,1.49
2022-12-09T00:18:38.277Z,1.49
2022-12-09T00:21:15.397Z,1.51
2022-12-09T00:23:42.420Z,1.50
2022-12-09T00:26:09.384Z,1.51
2022-12-09T00:28:36.317Z,1.50
2022-12-09T00:31:04.296Z,1.50
2022-12-09T00:33:32.839Z,1.49
2022-12-09T00:36:17.846Z,1.47
2022-12-09T00:38:44.700Z,1.44
2022-12-09T00:41:12.673Z,1.42
2022-12-09T00:43:40.396Z,1.36
2022-12-09T00:46:07.291Z,1.33
2022-12-09T00:48:34.889Z,1.35
2022-12-09T00:51:02.214Z,1.36
2022-12-09T00:53:29.276Z,1.38
2022-12-09T00:55:56.489Z,1.38
2022-12-09T00:58:23.519Z,1.38
2022-12-09T01:00:51.226Z,1.36
2022-12-09T01:03:18.882Z,1.37
2022-12-09T01:05:46.430Z,1.35
2022-12-09T01:08:14.506Z,1.33
2022-12-09T01:10:43.914Z,1.33
2022-12-09T01:13:13.036Z,1.32
2022-12-09T01:15:40.927Z,1.29
2022-12-09T01:18:08.494Z,1.27
2022-12-09T01:20:35.870Z,1.21
2022-12-09T01:23:04.108Z,1.15
2022-12-09T01:25:31.666Z,1.08
2022-12-09T01:27:58.610Z,1.00
2022-12-09T01:30:25.908Z,0.91
2022-12-09T01:32:52.801Z,0.82
2022-12-09T01:35:20.103Z,0.74
2022-12-09T01:37:46.922Z,0.65
2022-12-09T01:40:18.414Z,0.60
2022-12-09T01:42:45.914Z,0.54
2022-12-09T01:45:38.106Z,0.51
2022-12-09T01:48:11.657Z,0.49
2022-12-09T01:50:40.078Z,0.48
2022-12-09T01:53:07.574Z,0.48
2022-12-09T01:55:35.485Z,0.42
2022-12-09T01:58:03.804Z,0.35
2022-12-09T02:00:30.926Z,0.33
2022-12-09T02:03:00.172Z,0.27
2022-12-09T02:05:28.684Z,0.22
2022-12-09T02:07:56.479Z,0.26
2022-12-09T02:10:23.748Z,0.28
2022-12-09T02:13:19.778Z,0.31
2022-12-09T02:15:55.841Z,0.37
2022-12-09T02:18:26.380Z,0.43
2022-12-09T02:21:08.888Z,0.47
2022-12-09T02:23:40.763Z,0.50
2022-12-09T02:26:30.519Z,0.52
2022-12-09T02:29:04.259Z,0.54
2022-12-09T02:31:49.399Z,0.51
2022-12-09T02:34:21.651Z,0.49
2022-12-09T02:37:13.287Z,0.47
2022-12-09T02:40:16.114Z,0.47
2022-12-09T02:42:45.808Z,0.44
2022-12-09T02:45:15.254Z,0.37
2022-12-09T02:47:48.126Z,0.29
2022-12-09T02:50:20.991Z,0.21
2022-12-09T02:52:50.041Z,0.16
2022-12-09T02:55:19.524Z,0.02
2022-12-09T02:57:51.133Z,-0.05
2022-12-09T03:00:19.022Z,-0.08
2022-12-09T03:02:54.137Z,-0.15
2022-12-09T03:05:36.930Z,-0.24
2022-12-09T03:08:37.523Z,-0.31
2022-12-09T03:11:06.324Z,-0.36
2022-12-09T03:13:51.810Z,-0.41
2022-12-09T03:16:29.833Z,-0.47
2022-12-09T03:19:09.316Z,-0.49
2022-12-09T03:21:43.382Z,-0.53
2022-12-09T03:24:14.266Z,-0.56
2022-12-09T03:26:43.701Z,-0.62
2022-12-09T03:29:21.306Z,-0.65
2022-12-09T03:31:49.547Z,-0.66
2022-12-09T03:34:20.145Z,-0.67
2022-12-09T03:36:49.795Z,-0.63
2022-12-09T03:39:20.517Z,-0.62
2022-12-09T03:41:55.030Z,-0.59
2022-12-09T03:44:55.150Z,-0.65
2022-12-09T03:47:22.220Z,-0.73
2022-12-09T03:49:49.313Z,-0.77
2022-12-09T03:52:21.150Z,-0.78
2022-12-09T03:54:54.063Z,-0.81
2022-12-09T03:57:22.709Z,-0.85
2022-12-09T03:59:59.374Z,-0.89
2022-12-09T04:02:27.275Z,-0.95
2022-12-09T04:04:54.409Z,-0.95
2022-12-09T04:07:21.505Z,-1.03
2022-12-09T04:09:48.410Z,-1.03
2022-12-09T04:12:15.312Z,-1.00
2022-12-09T04:14:42.114Z,-1.01
2022-12-09T04:17:11.484Z,-1.04
2022-12-09T04:19:38.798Z,-1.04
2022-12-09T04:22:05.722Z,-1.03
2022-12-09T04:24:33.140Z,-1.05
2022-12-09T04:27:00.133Z,-1.07
2022-12-09T04:29:27.072Z,-1.10
2022-12-09T04:31:54.038Z,-1.12
2022-12-09T04:34:21.358Z,-1.15
2022-12-09T04:36:49.410Z,-1.16
2022-12-09T04:39:16.431Z,-1.19
2022-12-09T04:41:43.597Z,-1.21
2022-12-09T04:44:10.727Z,-1.19
2022-12-09T04:46:37.664Z,-1.18
2022-12-09T04:49:05.384Z,-1.17
2022-12-09T04:51:39.189Z,-1.17
2022-12-09T04:54:07.155Z,-1.18
2022-12-09T04:56:33.982Z,-1.21
2022-12-09T04:59:01.149Z,-1.18
2022-12-09T05:01:31.287Z,-1.20
2022-12-09T05:03:59.500Z,-1.18
2022-12-09T05:06:26.837Z,-1.21
2022-12-09T05:08:54.992Z,-1.23
2022-12-09T05:11:24.792Z,-1.24
2022-12-09T05:13:53.969Z,-1.26
2022-12-09T05:16:21.506Z,-1.24
2022-12-09T05:18:49.245Z,-1.26
2022-12-09T05:21:20.084Z,-1.25
2022-12-09T05:23:48.063Z,-1.27
2022-12-09T05:26:18.743Z,-1.26
2022-12-09T05:28:46.368Z,-1.22
2022-12-09T05:31:17.281Z,-1.23
2022-12-09T05:33:45.871Z,-1.18
2022-12-09T05:36:15.043Z,-1.15
2022-12-09T05:38:43.026Z,-1.13
2022-12-09T05:41:10.501Z,-1.11
2022-12-09T05:43:37.744Z,-1.07
2022-12-09T05:46:06.759Z,-1.10
2022-12-09T05:48:33.846Z,-1.12
2022-12-09T05:51:11.743Z,-1.15
2022-12-09T05:53:39.102Z,-1.14
2022-12-09T05:56:06.696Z,-1.12
2022-12-09T05:58:34.942Z,-1.10
2022-12-09T06:01:09.375Z,-1.07
2022-12-09T06:03:37.722Z,-1.07
2022-12-09T06:06:09.631Z,-1.05
2022-12-09T06:08:37.814Z,-1.04
2022-12-09T06:11:08.898Z,-1.06
2022-12-09T06:13:36.622Z,-1.03
2022-12-09T06:16:05.230Z,-0.98
2022-12-09T06:18:32.976Z,-0.97
2022-12-09T06:21:00.271Z,-0.95
2022-12-09T06:23:27.649Z,-0.96
2022-12-09T06:25:54.905Z,-0.97
2022-12-09T06:28:22.114Z,-0.95
2022-12-09T06:30:49.019Z,-0.92
2022-12-09T06:33:45.018Z,-0.89
2022-12-09T06:36:05.421Z,-0.89
2022-12-09T06:38:32.960Z,-0.86
2022-12-09T06:41:00.562Z,-0.87
2022-12-09T06:43:27.767Z,-0.88
2022-12-09T06:45:54.726Z,-0.89
2022-12-09T06:48:21.709Z,-0.88
2022-12-09T06:50:51.492Z,-0.88
2022-12-09T06:53:18.843Z,-0.91
2022-12-09T06:55:46.189Z,-0.92
2022-12-09T06:58:13.426Z,-0.89
2022-12-09T07:00:40.681Z,-0.85
2022-12-09T07:03:08.489Z,-0.83
2022-12-09T07:05:37.155Z,-0.79
2022-12-09T07:08:04.522Z,-0.77
2022-12-09T07:10:31.928Z,-0.76
2022-12-09T07:12:59.328Z,-0.83
2022-12-09T07:15:26.977Z,-0.84
2022-12-09T07:17:54.246Z,-0.83
2022-12-09T07:20:21.606Z,-0.82
2022-12-09T07:22:48.980Z,-0.83
2022-12-09T07:25:16.252Z,-0.83
2022-12-09T07:27:43.616Z,-0.82
2022-12-09T07:30:11.109Z,-0.87
2022-12-09T07:32:38.632Z,-0.89
2022-12-09T07:35:06.523Z,-0.89
2022-12-09T07:37:34.256Z,-0.86
2022-12-09T07:40:01.680Z,-0.89
2022-12-09T07:42:28.933Z,-0.87
2022-12-09T07:44:55.925Z,-0.86
2022-12-09T07:47:23.176Z,-0.86
2022-12-09T07:49:50.594Z,-0.86
2022-12-09T07:52:18.042Z,-0.88
2022-12-09T07:54:45.061Z,-0.89
2022-12-09T07:57:12.523Z,-0.90
2022-12-09T07:59:39.729Z,-0.87
2022-12-09T08:02:07.125Z,-0.82
2022-12-09T08:04:36.395Z,-0.82
2022-12-09T08:07:04.652Z,-0.80
2022-12-09T08:09:32.140Z,-0.79
2022-12-09T08:11:59.503Z,-0.79
2022-12-09T08:14:27.103Z,-0.81
2022-12-09T08:16:54.165Z,-0.79
2022-12-09T08:19:21.944Z,-0.80
2022-12-09T08:21:54.370Z,-0.86
2022-12-09T08:24:21.970Z,-0.87
2022-12-09T08:26:51.466Z,-0.96
2022-12-09T08:29:19.194Z,-0.99
2022-12-09T08:31:46.557Z,-0.99
2022-12-09T08:34:15.328Z,-0.91
2022-12-09T08:36:43.452Z,-0.89
2022-12-09T08:39:12.415Z,-0.86
2022-12-09T08:41:40.259Z,-0.88
2022-12-09T08:44:09.605Z,-0.90
2022-12-09T08:46:39.099Z,-0.90
2022-12-09T08:49:07.375Z,-0.88
2022-12-09T08:51:34.990Z,-0.88
2022-12-09T08:54:03.361Z,-0.87
2022-12-09T08:56:31.352Z,-0.88
2022-12-09T08:58:58.744Z,-0.79
2022-12-09T09:01:32.826Z,-0.81
2022-12-09T09:04:09.563Z,-0.80
2022-12-09T09:06:42.313Z,-0.76
2022-12-09T09:09:11.160Z,-0.78
2022-12-09T09:11:39.826Z,-0.76
2022-12-09T09:14:09.306Z,-0.73
2022-12-09T09:16:39.605Z,-0.69
2022-12-09T09:19:07.762Z,-0.77
2022-12-09T09:21:35.815Z,-0.83
2022-12-09T09:24:08.671Z,-0.76
2022-12-09T09:26:36.249Z,-0.78
2022-12-09T09:29:03.447Z,-0.79
2022-12-09T09:31:30.466Z,-0.74
2022-12-09T09:33:57.992Z,-0.64
2022-12-09T09:36:25.705Z,-0.55
2022-12-09T09:38:55.929Z,-0.56
2022-12-09T09:41:41.010Z,-0.52
2022-12-09T09:44:41.999Z,-0.49
2022-12-09T09:47:19.858Z,-0.42
2022-12-09T09:49:59.593Z,-0.37
2022-12-09T09:52:29.004Z,-0.33
2022-12-09T09:54:57.840Z,-0.31
2022-12-09T09:57:39.091Z,-0.29
2022-12-09T10:00:27.887Z,-0.27
2022-12-09T10:03:10.665Z,-0.21
2022-12-09T10:05:42.532Z,-0.09
2022-12-09T10:08:32.953Z,-0.04
2022-12-09T10:11:39.454Z,-0.01
2022-12-09T10:14:42.199Z,0.05
2022-12-09T10:17:26.357Z,0.13
2022-12-09T10:20:21.519Z,0.24
2022-12-09T10:22:54.157Z,0.22
2022-12-09T10:25:25.180Z,0.17
2022-12-09T10:28:06.483Z,0.16
2022-12-09T10:30:41.691Z,0.15
2022-12-09T10:33:13.692Z,0.16
2022-12-09T10:35:41.544Z,0.21
2022-12-09T10:38:18.254Z,0.26
2022-12-09T10:40:50.488Z,0.32
2022-12-09T10:43:38.479Z,0.42
2022-12-09T10:46:20.505Z,0.50
2022-12-09T10:48:48.623Z,0.57
2022-12-09T10:51:18.497Z,0.65
2022-12-09T10:54:02.014Z,0.73
2022-12-09T10:56:35.845Z,0.79
2022-12-09T10:59:24.046Z,0.81
2022-12-09T11:01:58.798Z,0.82
2022-12-09T11:04:42.148Z,0.89
2022-12-09T11:07:12.995Z,0.98
2022-12-09T11:09:40.613Z,1.07
2022-12-09T11:12:20.452Z,1.14
2022-12-09T11:14:59.831Z,1.32
2022-12-09T11:17:36.248Z,1.37
2022-12-09T11:20:07.462Z,1.37
2022-12-09T11:22:41.249Z,1.33
2022-12-09T11:25:11.787Z,1.36
2022-12-09T11:28:15.100Z,1.38
2022-12-09T11:31:20.397Z,1.36
2022-12-09T11:33:51.071Z,1.36
2022-12-09T11:36:22.808Z,1.42
2022-12-09T11:38:53.048Z,1.43
2022-12-09T11:41:41.771Z,1.45
2022-12-09T11:44:31.747Z,1.51
2022-12-09T11:47:24.720Z,1.65
2022-12-09T11:49:56.865Z,1.73
2022-12-09T11:52:28.299Z,1.73
2022-12-09T11:55:24.512Z,1.72
2022-12-09T11:58:01.138Z,1.73
2022-12-09T12:00:37.573Z,1.75
2022-12-09T12:03:04.492Z,1.70
2022-12-09T12:05:42.326Z,1.71
2022-12-09T12:08:20.742Z,1.77
2022-12-09T12:10:56.645Z,1.84
2022-12-09T12:13:40.708Z,1.87
2022-12-09T12:16:12.587Z,1.90
2022-12-09T12:19:03.922Z,2.00
2022-12-09T12:21:36.882Z,2.05
2022-12-09T12:24:09.655Z,2.03
2022-12-09T12:26:49.781Z,2.06
2022-12-09T12:29:19.544Z,2.06
2022-12-09T12:32:15.358Z,2.08
2022-12-09T12:34:51.872Z,2.10
2022-12-09T12:37:39.807Z,2.05
2022-12-09T12:40:26.822Z,2.02
2022-12-09T12:43:33.834Z,2.04
2022-12-09T12:46:19.376Z,2.10
2022-12-09T12:54:47.853Z,2.16
2022-12-09T12:57:37.466Z,2.17
2022-12-09T13:00:12.896Z,2.32
2022-12-09T13:03:05.891Z,2.45
2022-12-09T13:05:38.074Z,2.42
2022-12-09T13:08:27.585Z,2.36
2022-12-09T13:11:00.449Z,2.34
2022-12-09T13:13:37.176Z,2.34
2022-12-09T13:16:18.371Z,2.36
2022-12-09T13:18:45.409Z,2.40
2022-12-09T13:21:12.430Z,2.40
2022-12-09T13:24:02.868Z,2.38
2022-12-09T13:27:08.150Z,2.37
2022-12-09T13:29:34.511Z,2.34
2022-12-09T13:32:42.884Z,2.31
2022-12-09T13:35:32.173Z,2.32
2022-12-09T13:37:59.695Z,2.29
2022-12-09T13:40:38.786Z,2.31
2022-12-09T13:43:17.344Z,2.30
2022-12-09T13:45:43.741Z,2.33
2022-12-09T13:48:16.997Z,2.26
2022-12-09T13:50:51.404Z,2.27
2022-12-09T13:53:20.895Z,2.21
2022-12-09T13:55:49.934Z,2.18
2022-12-09T13:58:27.616Z,2.19
2022-12-09T14:01:13.277Z,2.21
2022-12-09T14:03:58.508Z,2.22
2022-12-09T14:06:30.216Z,2.26
2022-12-09T14:09:02.033Z,2.28
2022-12-09T14:11:37.708Z,2.27
2022-12-09T14:14:22.997Z,2.26
2022-12-09T14:16:57.063Z,2.23
2022-12-09T14:19:23.752Z,2.23
2022-12-09T14:22:24.922Z,2.14
2022-12-09T14:24:59.091Z,2.03
2022-12-09T14:27:27.398Z,1.96
2022-12-09T14:29:59.894Z,1.85
2022-12-09T14:32:33.944Z,1.80
2022-12-09T14:35:09.461Z,1.80
2022-12-09T14:38:04.271Z,1.80
2022-12-09T14:40:50.476Z,1.82
2022-12-09T14:43:38.975Z,1.82
2022-12-09T14:46:18.911Z,1.81
2022-12-09T14:48:52.616Z,1.77
2022-12-09T14:51:23.820Z,1.73
2022-12-09T14:53:56.717Z,1.66
2022-12-09T14:56:25.748Z,1.59
2022-12-09T14:59:20.252Z,1.52
2022-12-09T15:02:15.939Z,1.45
2022-12-09T15:04:45.423Z,1.31
2022-12-09T15:07:25.166Z,1.23
2022-12-09T15:10:04.315Z,1.13
2022-12-09T15:12:35.018Z,1.06
2022-12-09T15:15:26.986Z,1.00
2022-12-09T15:17:59.712Z,0.95
2022-12-09T15:20:30.811Z,0.89
2022-12-09T15:23:02.203Z,0.82
2022-12-09T15:25:29.399Z,0.79
2022-12-09T15:28:13.657Z,0.78
2022-12-09T15:30:40.191Z,0.76
2022-12-09T15:33:14.435Z,0.76
2022-12-09T15:35:43.660Z,0.71
2022-12-09T15:38:10.501Z,0.67
2022-12-09T15:40:38.053Z,0.61
2022-12-09T15:43:11.517Z,0.58
2022-12-09T15:45:41.842Z,0.52
2022-12-09T15:48:14.919Z,0.47
2022-12-09T15:50:56.709Z,0.43
2022-12-09T15:54:01.172Z,0.37
2022-12-09T15:56:44.970Z,0.27
2022-12-09T15:59:20.811Z,0.23
2022-12-09T16:01:51.295Z,0.19
2022-12-09T16:04:24.740Z,0.15
2022-12-09T16:06:51.517Z,0.09
2022-12-09T16:09:20.736Z,0.02
2022-12-09T16:11:53.100Z,-0.05
2022-12-09T16:14:21.730Z,-0.11
2022-12-09T16:16:55.805Z,-0.14
2022-12-09T16:19:40.697Z,-0.17
2022-12-09T16:22:27.927Z,-0.22
2022-12-09T16:25:14.586Z,-0.28
2022-12-09T16:27:48.416Z,-0.35
2022-12-09T16:30:23.442Z,-0.42
2022-12-09T16:32:58.188Z,-0.46
2022-12-09T16:35:28.364Z,-0.50
2022-12-09T16:37:57.958Z,-0.54
2022-12-09T16:40:24.374Z,-0.60
2022-12-09T16:42:55.804Z,-0.63
2022-12-09T16:45:29.637Z,-0.65
2022-12-09T16:47:57.561Z,-0.72
2022-12-09T16:50:30.993Z,-0.78
2022-12-09T16:53:02.663Z,-0.82
2022-12-09T16:55:30.974Z,-0.84
2022-12-09T16:57:59.170Z,-0.87
2022-12-09T17:00:26.028Z,-0.90
2022-12-09T17:03:01.981Z,-0.96
2022-12-09T17:05:28.608Z,-0.98
2022-12-09T17:07:55.851Z,-1.05
2022-12-09T17:10:22.688Z,-1.07
2022-12-09T17:12:49.586Z,-1.11
2022-12-09T17:15:17.801Z,-1.14
2022-12-09T17:17:48.883Z,-1.19
2022-12-09T17:20:16.188Z,-1.20
2022-12-09T17:22:42.689Z,-1.24
2022-12-09T17:25:10.528Z,-1.25
2022-12-09T17:27:37.448Z,-1.29
2022-12-09T17:30:04.882Z,-1.33
2022-12-09T17:32:31.330Z,-1.34
2022-12-09T17:34:57.973Z,-1.38
2022-12-09T17:37:24.436Z,-1.41
2022-12-09T17:39:55.701Z,-1.44
2022-12-09T17:42:26.776Z,-1.45
2022-12-09T17:44:53.185Z,-1.46
2022-12-09T17:47:19.925Z,-1.48
2022-12-09T17:49:46.372Z,-1.53
2022-12-09T17:52:14.209Z,-1.54
2022-12-09T17:54:40.719Z,-1.54
2022-12-09T17:57:07.175Z,-1.59
2022-12-09T17:59:34.977Z,-1.62
2022-12-09T18:02:03.569Z,-1.64
2022-12-09T18:04:31.655Z,-1.68
2022-12-09T18:06:58.130Z,-1.67
2022-12-09T18:09:24.886Z,-1.70
2022-12-09T18:11:54.300Z,-1.70
2022-12-09T18:14:21.119Z,-1.74
2022-12-09T18:16:49.046Z,-1.75
2022-12-09T18:19:18.169Z,-1.76
2022-12-09T18:21:45.501Z,-1.80
2022-12-09T18:24:12.323Z,-1.80
2022-12-09T18:26:41.934Z,-1.83
2022-12-09T18:29:09.887Z,-1.85
2022-12-09T18:31:36.408Z,-1.87
2022-12-09T18:34:02.804Z,-1.89
2022-12-09T18:36:29.600Z,-1.89
2022-12-09T18:38:58.099Z,-1.90
2022-12-09T18:41:29.035Z,-1.92
2022-12-09T18:43:57.494Z,-1.95
2022-12-09T18:46:27.826Z,-1.97
2022-12-09T18:49:00.054Z,-1.98
2022-12-09T18:51:27.308Z,-1.98
2022-12-09T18:53:53.975Z,-2.03
2022-12-09T18:56:20.401Z,-2.04
2022-12-09T18:59:06.100Z,-2.05
2022-12-09T19:01:34.327Z,-2.05
2022-12-09T19:04:02.677Z,-2.09
2022-12-09T19:06:34.908Z,-2.13
2022-12-09T19:09:08.201Z,-2.14
2022-12-09T19:11:37.195Z,-2.16
2022-12-09T19:14:05.508Z,-2.18
2022-12-09T19:16:32.879Z,-2.19
2022-12-09T19:19:05.320Z,-2.20
2022-12-09T19:21:35.530Z,-2.23
2022-12-09T19:24:02.150Z,-2.28
2022-12-09T19:26:31.606Z,-2.28
2022-12-09T19:29:06.361Z,-2.27
2022-12-09T19:31:38.651Z,-2.28
2022-12-09T19:34:08.564Z,-2.31
2022-12-09T19:36:35.300Z,-2.31
2022-12-09T19:39:02.821Z,-2.36
2022-12-09T19:41:29.284Z,-2.34
2022-12-09T19:43:57.247Z,-2.36
2022-12-09T19:46:24.537Z,-2.35
2022-12-09T19:48:50.990Z,-2.36
2022-12-09T19:51:18.856Z,-2.35
2022-12-09T19:53:46.104Z,-2.34
2022-12-09T19:56:15.916Z,-2.35
2022-12-09T19:58:43.764Z,-2.36
2022-12-09T20:01:22.462Z,-2.34
2022-12-09T20:03:51.622Z,-2.34
2022-12-09T20:06:20.496Z,-2.36
2022-12-09T20:08:47.703Z,-2.37
2022-12-09T20:11:16.516Z,-2.37
2022-12-09T20:13:43.492Z,-2.39
2022-12-09T20:16:13.532Z,-2.42
2022-12-09T20:18:40.624Z,-2.41
2022-12-09T20:21:09.280Z,-2.39
2022-12-09T20:23:37.623Z,-2.42
2022-12-09T20:26:14.879Z,-2.42
2022-12-09T20:28:43.266Z,-2.43
2022-12-09T20:31:18.106Z,-2.45
2022-12-09T20:33:45.064Z,-2.50
2022-12-09T20:36:16.816Z,-2.50
2022-12-09T20:38:44.448Z,-2.50
2022-12-09T20:41:13.336Z,-2.55
2022-12-09T20:43:42.042Z,-2.56
2022-12-09T20:46:14.731Z,-2.57
2022-12-09T20:48:42.027Z,-2.58
2022-12-09T20:51:17.933Z,-2.60
2022-12-09T20:53:45.845Z,-2.61
2022-12-09T20:56:12.879Z,-2.61
2022-12-09T20:58:40.668Z,-2.66
2022-12-09T21:01:12.636Z,-2.69
2022-12-09T21:03:39.335Z,-2.66
2022-12-09T21:06:06.975Z,-2.64
2022-12-09T21:08:33.772Z,-2.64
2022-12-09T21:11:06.502Z,-2.66
2022-12-09T21:13:36.874Z,-2.66
2022-12-09T21:16:12.502Z,-2.69
2022-12-09T21:18:39.380Z,-2.71
2022-12-09T21:21:06.248Z,-2.70
2022-12-09T21:23:35.136Z,-2.69
2022-12-09T21:26:07.557Z,-2.70
2022-12-09T21:28:35.209Z,-2.71
2022-12-09T21:31:16.919Z,-2.70
2022-12-09T21:33:45.158Z,-2.72
2022-12-09T21:36:20.348Z,-2.69
2022-12-09T21:38:47.680Z,-2.70
2022-12-09T21:41:17.631Z,-2.70
2022-12-09T21:43:45.163Z,-2.70
2022-12-09T21:46:14.437Z,-2.74
2022-12-09T21:48:41.569Z,-2.74
2022-12-09T21:51:09.716Z,-2.74
2022-12-09T21:53:36.192Z,-2.75
2022-12-09T21:56:05.416Z,-2.77
2022-12-09T21:58:32.696Z,-2.74
2022-12-09T22:00:59.927Z,-2.72
2022-12-09T22:03:26.568Z,-2.72
2022-12-09T22:05:58.181Z,-2.71
2022-12-09T22:08:25.032Z,-2.69
2022-12-09T22:10:51.517Z,-2.69
2022-12-09T22:13:18.018Z,-2.69
2022-12-09T22:15:44.442Z,-2.69
2022-12-09T22:18:10.966Z,-2.65
2022-12-09T22:21:22.566Z,-2.64
2022-12-09T22:23:24.246Z,-2.61
2022-12-09T22:25:50.745Z,-2.60
2022-12-09T22:28:17.139Z,-2.60
2022-12-09T22:30:43.651Z,-2.62
2022-12-09T22:33:10.160Z,-2.61
2022-12-09T22:35:36.636Z,-2.61
2022-12-09T22:38:08.799Z,-2.61
2022-12-09T22:40:38.315Z,-2.63
2022-12-09T22:43:04.810Z,-2.67
2022-12-09T22:45:31.208Z,-2.68
2022-12-09T22:47:57.658Z,-2.69
2022-12-09T22:50:24.060Z,-2.70
2022-12-09T22:52:50.528Z,-2.70
2022-12-09T22:55:17.171Z,-2.69
2022-12-09T22:57:43.632Z,-2.73
2022-12-09T23:00:11.491Z,-2.69
2022-12-09T23:02:39.169Z,-2.70
2022-12-09T23:05:08.935Z,-2.70
2022-12-09T23:07:35.764Z,-2.67
2022-12-09T23:10:02.356Z,-2.66
2022-12-09T23:12:28.844Z,-2.63
2022-12-09T23:14:55.301Z,-2.60
2022-12-09T23:17:21.902Z,-2.58
2022-12-09T23:19:48.328Z,-2.56
2022-12-09T23:22:14.805Z,-2.52
2022-12-09T23:24:41.267Z,-2.52
2022-12-09T23:27:07.679Z,-2.50
2022-12-09T23:29:34.114Z,-2.50
2022-12-09T23:32:00.518Z,-2.49
2022-12-09T23:34:26.971Z,-2.47
2022-12-09T23:36:53.444Z,-2.48
2022-12-09T23:39:19.943Z,-2.46
2022-12-09T23:41:46.964Z,-2.44
2022-12-09T23:44:16.911Z,-2.43
2022-12-09T23:46:43.869Z,-2.42
2022-12-09T23:49:10.556Z,-2.42
2022-12-09T23:51:40.189Z,-2.39
2022-12-09T23:54:08.226Z,-2.40
2022-12-09T23:56:38.595Z,-2.42
2022-12-09T23:59:07.303Z,-2.39
